Time;durP1;ratioP1;P1;durP2;ratioP2;P2;SDS_P1;SDS_P2;PMS_P1;PMS_P2;Temp;Humidity;BMP_temperature;BMP_pressure;BME280_temperature;BME280_humidity;BME280_pressure;Samples;Min_cycle;Max_cycle;Signal;HPM_P1;HPM_P2
2022/11/07 00:02:07;;;;;;;2.13;1.27;;;10.40;96.50;;;13.25;54.03;97460.09;4908946;29;20053;-54
2022/11/07 00:04:36;;;;;;;3.00;1.20;;;10.30;96.60;;;13.25;54.48;97465.44;4908686;29;20053;-51
2022/11/07 00:07:06;;;;;;;1.90;1.30;;;10.30;96.90;;;13.30;54.13;97467.59;4908735;29;20054;-50
2022/11/07 00:09:34;;;;;;;1.45;1.08;;;10.40;97.00;;;13.25;54.63;97475.31;4909032;29;20044;-52
2022/11/07 00:12:02;;;;;;;1.60;1.13;;;10.30;97.60;;;13.29;54.22;97476.63;4908886;29;20056;-50
2022/11/07 00:14:31;;;;;;;2.00;1.50;;;10.30;98.50;;;13.33;54.23;97472.59;4907159;29;20052;-53
2022/11/07 00:16:59;;;;;;;1.47;1.13;;;10.30;98.10;;;13.38;54.27;97478.22;4909195;29;20200;-54
2022/11/07 00:19:27;;;;;;;2.33;1.27;;;10.40;98.00;;;13.43;54.16;97473.16;4908229;29;20056;-51
2022/11/07 00:21:55;;;;;;;1.77;1.30;;;10.40;97.80;;;13.50;54.17;97479.44;4908701;29;20347;-49
2022/11/07 00:24:24;;;;;;;1.33;1.23;;;10.50;97.60;;;13.53;54.17;97483.56;4908334;29;20053;-52
2022/11/07 00:26:52;;;;;;;2.75;1.60;;;10.50;98.00;;;13.52;54.32;97484.59;4908814;29;20048;-53
2022/11/07 00:29:20;;;;;;;1.93;1.57;;;10.60;98.10;;;13.53;54.65;97495.13;4908571;29;20224;-51
2022/11/07 00:31:49;;;;;;;3.87;1.73;;;10.60;98.70;;;13.51;54.52;97494.47;4908319;29;20071;-50
2022/11/07 00:34:17;;;;;;;2.60;1.20;;;10.60;98.50;;;13.58;54.62;97497.22;4908747;29;20065;-53
2022/11/07 00:36:45;;;;;;;2.43;1.37;;;10.60;98.70;;;13.64;54.56;97493.00;4908793;29;20369;-50
2022/11/07 00:39:13;;;;;;;1.42;1.17;;;10.60;98.30;;;13.67;54.51;97495.31;4907653;29;20049;-50
2022/11/07 00:41:41;;;;;;;1.67;1.17;;;10.70;98.00;;;13.67;54.55;97498.00;4908288;29;20051;-50
2022/11/07 00:44:09;;;;;;;1.63;1.20;;;10.70;98.20;;;13.67;54.68;97503.34;4906807;29;20057;-48
2022/11/07 00:46:37;;;;;;;1.90;1.13;;;10.80;98.30;;;13.74;54.50;97513.09;4908475;29;20068;-52
2022/11/07 00:49:06;;;;;;;3.28;1.42;;;10.80;97.80;;;13.77;54.57;97511.91;4908026;29;20059;-52
2022/11/07 00:51:34;;;;;;;1.35;1.08;;;10.90;97.50;;;13.83;54.38;97513.03;4907114;29;20247;-52
2022/11/07 00:54:04;;;;;;;3.08;1.30;;;10.90;97.30;;;13.83;54.59;97518.38;4907782;29;20058;-54
2022/11/07 00:56:32;;;;;;;2.20;1.00;;;10.90;97.30;;;13.84;54.51;97512.84;4908232;29;20365;-48
2022/11/07 00:59:00;;;;;;;3.83;1.58;;;10.90;97.50;;;13.89;54.50;97509.59;4907917;29;20361;-50
2022/11/07 01:01:32;;;;;;;1.30;1.00;;;11.00;97.40;;;13.93;54.32;97514.38;4907074;29;20052;-53
2022/11/07 01:06:48;;;;;;;3.40;1.20;;;11.00;97.00;;;13.98;54.33;97512.00;4908240;29;20251;-51
2022/11/07 01:09:20;;;;;;;2.03;0.95;;;11.10;96.90;;;13.93;54.51;97509.03;4907848;29;20056;-48
2022/11/07 01:11:49;;;;;;;1.63;1.53;;;11.10;97.10;;;13.91;54.69;97505.72;4907560;29;20352;-52
2022/11/07 01:14:20;;;;;;;1.80;1.03;;;11.00;97.40;;;13.95;54.48;97503.50;4907266;29;20049;-48
2022/11/07 01:16:48;;;;;;;1.05;0.90;;;11.00;97.30;;;13.97;54.46;97513.00;4906585;29;20056;-48
2022/11/07 01:19:18;;;;;;;3.33;0.80;;;11.00;97.30;;;13.99;54.41;97515.47;4907617;29;20343;-48
2022/11/07 01:21:47;;;;;;;3.00;1.10;;;11.00;97.40;;;13.96;54.58;97507.84;4906585;29;20056;-49
2022/11/07 01:24:15;;;;;;;1.07;0.90;;;11.00;97.60;;;13.94;54.58;97509.88;4906100;29;20224;-51
2022/11/07 01:26:48;;;;;;;3.42;1.10;;;11.00;97.40;;;13.92;54.86;97503.84;4907709;29;20053;-50
2022/11/07 01:29:18;;;;;;;3.05;1.10;;;11.00;97.60;;;13.90;54.83;97511.25;4906180;29;20057;-52
2022/11/07 01:31:46;;;;;;;2.97;0.90;;;11.00;97.80;;;13.89;54.95;97514.94;4906779;29;20216;-51
2022/11/07 01:34:16;;;;;;;1.70;1.13;;;11.00;98.30;;;13.91;54.99;97513.75;4906378;29;20052;-50
2022/11/07 01:36:44;;;;;;;1.23;0.85;;;11.00;98.30;;;13.86;55.18;97508.13;4907342;29;20048;-52
2022/11/07 01:39:12;;;;;;;1.98;0.88;;;11.00;98.80;;;13.87;55.14;97501.75;4905171;29;20044;-49
2022/11/07 01:41:41;;;;;;;1.42;1.33;;;11.00;98.90;;;13.96;55.00;97508.66;4907375;29;20056;-50
2022/11/07 01:44:09;;;;;;;1.33;0.93;;;11.00;98.80;;;14.03;54.77;97503.38;4906748;29;20056;-50
2022/11/07 01:46:43;;;;;;;1.65;1.10;;;11.10;98.70;;;14.05;54.79;97506.72;4907905;29;20060;-51
2022/11/07 01:49:23;;;;;;;2.50;1.00;;;11.10;98.50;;;14.11;54.56;97505.97;4907407;29;20061;-50
2022/11/07 01:52:07;;;;;;;1.88;1.27;;;11.10;98.50;;;14.13;54.60;97514.66;4907149;29;20354;-48
2022/11/07 01:54:43;;;;;;;2.78;0.80;;;11.10;98.30;;;14.18;54.60;97508.72;4906664;29;20330;-54
2022/11/07 01:57:22;;;;;;;0.73;0.70;;;11.20;98.20;;;14.15;54.60;97512.63;4906167;29;20239;-50
2022/11/07 01:59:54;;;;;;;1.23;0.80;;;11.20;98.10;;;14.12;54.77;97514.84;4905786;29;20048;-48
2022/11/07 02:02:25;;;;;;;1.77;1.10;;;11.20;98.20;;;14.12;54.91;97514.84;4907144;29;20070;-51
2022/11/07 02:04:58;;;;;;;2.03;1.15;;;11.20;98.30;;;14.10;54.70;97512.34;4906494;29;20059;-49
2022/11/07 02:07:28;;;;;;;2.20;1.13;;;11.20;98.30;;;14.10;54.92;97511.53;4906091;29;20057;-52
2022/11/07 02:09:56;;;;;;;2.45;1.17;;;11.20;98.20;;;14.09;54.88;97499.97;4905367;29;20393;-51
2022/11/07 02:12:26;;;;;;;1.55;0.70;;;11.20;99.00;;;14.13;54.89;97503.94;4906901;29;20052;-50
2022/11/07 02:14:55;;;;;;;2.42;1.23;;;11.30;98.30;;;14.16;54.77;97516.94;4906401;29;20067;-50
2022/11/07 02:17:24;;;;;;;2.30;0.90;;;11.30;98.00;;;14.13;54.95;97503.09;4906033;29;20065;-52
2022/11/07 02:19:55;;;;;;;2.63;1.10;;;11.30;97.70;;;14.16;54.94;97500.06;4906826;29;20056;-51
2022/11/07 02:22:56;;;;;;;1.27;0.90;;;11.30;97.70;;;14.19;54.86;97513.09;4906710;29;20049;-53
2022/11/07 02:25:24;;;;;;;1.98;1.52;;;11.40;97.50;;;14.19;54.96;97499.69;4905756;29;20060;-53
2022/11/07 02:27:59;;;;;;;2.08;1.10;;;11.40;97.50;;;14.20;55.00;97508.56;4905534;29;20052;-52
2022/11/07 02:30:32;;;;;;;1.58;1.08;;;11.30;97.70;;;14.27;54.73;97509.44;4905575;29;20041;-52
2022/11/07 02:33:02;;;;;;;3.97;1.95;;;11.40;97.40;;;14.26;54.80;97508.63;4907055;29;20067;-50
2022/11/07 02:35:42;;;;;;;2.53;1.33;;;11.30;97.40;;;14.27;54.61;97506.75;4906444;29;20048;-53
2022/11/07 02:38:20;;;;;;;1.20;0.93;;;11.40;97.20;;;14.24;54.87;97507.16;4905662;29;20048;-51
2022/11/07 02:40:57;;;;;;;1.25;0.95;;;11.40;96.70;;;14.30;54.66;97501.88;4905831;29;20057;-53
2022/11/07 02:43:29;;;;;;;1.90;1.05;;;11.40;96.70;;;14.29;54.50;97502.06;4908634;29;20061;-51
2022/11/07 02:46:01;;;;;;;1.73;1.13;;;11.50;96.40;;;14.31;54.85;97495.50;4909323;29;20074;-53
2022/11/07 02:48:48;;;;;;;1.15;0.95;;;11.50;96.10;;;14.35;54.48;97498.63;4909294;29;20060;-51
2022/11/07 02:51:17;;;;;;;2.15;1.00;;;11.50;95.70;;;14.34;54.44;97489.75;4909319;29;20059;-52
2022/11/07 02:53:45;;;;;;;3.03;1.10;;;11.50;95.60;;;14.34;54.48;97492.44;4909903;29;20060;-54
2022/11/07 02:56:13;;;;;;;1.42;1.00;;;11.50;95.30;;;14.31;54.24;97490.16;4909829;29;20044;-52
2022/11/07 02:58:41;;;;;;;2.25;1.30;;;11.40;95.20;;;14.37;54.23;97493.91;4910132;29;20068;-51
2022/11/07 03:01:11;;;;;;;2.13;1.08;;;11.50;95.10;;;14.39;54.12;97491.88;4910208;29;20052;-49
2022/11/07 03:03:45;;;;;;;2.92;1.42;;;11.50;94.70;;;14.38;54.12;97488.38;4909680;29;20056;-50
2022/11/07 03:06:18;;;;;;;;;;;11.60;94.40;;;14.48;53.97;97490.75;4909609;29;20243;-49
2022/11/07 03:08:47;;;;;;;2.03;1.20;;;11.50;93.60;;;14.48;53.55;97488.06;4909026;29;20210;-50
2022/11/07 03:11:18;;;;;;;1.83;1.20;;;11.50;94.20;;;14.41;53.83;97491.69;4909968;29;20049;-51
2022/11/07 03:13:49;;;;;;;1.90;1.50;;;11.50;93.80;;;14.40;53.97;97495.38;4909528;29;20080;-49
2022/11/07 03:16:18;;;;;;;1.38;1.08;;;11.50;93.80;;;14.43;53.96;97500.38;4909748;29;20048;-49
2022/11/07 03:18:46;;;;;;;1.98;1.10;;;11.60;94.00;;;14.44;53.86;97505.50;4909748;29;20048;-50
2022/11/07 03:21:14;;;;;;;1.05;0.93;;;11.60;93.80;;;14.46;53.70;97508.88;4909853;29;20059;-50
2022/11/07 03:23:42;;;;;;;3.53;1.17;;;11.60;93.40;;;14.48;53.79;97511.31;4909533;29;20052;-51
2022/11/07 03:26:10;;;;;;;3.20;1.48;;;11.60;93.30;;;14.45;53.77;97504.50;4910092;29;20056;-51
2022/11/07 03:28:38;;;;;;;2.53;1.40;;;11.60;93.20;;;14.41;53.97;97507.78;4909547;29;20058;-52
2022/11/07 03:31:06;;;;;;;2.45;1.33;;;11.60;93.40;;;14.43;53.89;97509.22;4909642;29;20049;-51
2022/11/07 03:33:35;;;;;;;3.88;1.52;;;11.50;93.30;;;14.45;53.81;97514.41;4909138;29;20365;-50
2022/11/07 03:36:03;;;;;;;3.08;1.20;;;11.60;93.60;;;14.48;53.79;97514.00;4909205;29;20246;-51
2022/11/07 03:38:31;;;;;;;2.55;1.17;;;11.60;93.30;;;14.51;53.97;97509.09;4907402;29;20369;-52
2022/11/07 03:40:59;;;;;;;2.40;1.30;;;11.60;93.20;;;14.53;53.73;97514.28;4909666;29;20351;-51
2022/11/07 03:43:27;;;;;;;2.55;1.20;;;11.60;93.50;;;14.54;53.69;97511.41;4909294;29;20258;-53
2022/11/07 03:45:56;;;;;;;2.38;1.33;;;11.60;93.30;;;14.57;53.78;97515.59;4909250;29;20161;-52
2022/11/07 03:48:24;;;;;;;1.50;1.15;;;11.60;93.30;;;14.60;53.69;97512.53;4909375;29;20048;-54
2022/11/07 03:50:52;;;;;;;2.50;1.40;;;11.70;93.30;;;14.62;53.70;97510.50;4909163;29;20053;-50
2022/11/07 03:53:20;;;;;;;2.28;1.27;;;11.60;92.70;;;14.62;53.86;97518.53;4908936;29;20059;-49
2022/11/07 03:55:55;;;;;;;3.58;1.52;;;11.70;93.20;;;14.64;53.73;97527.22;4908737;29;20052;-51
2022/11/07 03:58:25;;;;;;;1.63;1.05;;;11.60;93.00;;;14.65;53.57;97530.72;4908025;29;20064;-50
2022/11/07 04:00:53;;;;;;;2.45;1.67;;;11.70;93.40;;;14.67;53.46;97529.50;4907967;29;20401;-49
2022/11/07 04:03:21;;;;;;;2.45;1.35;;;11.70;93.20;;;14.69;53.57;97538.16;4908110;29;20055;-50
2022/11/07 04:05:49;;;;;;;3.17;1.60;;;11.60;92.70;;;14.71;53.49;97533.47;4908432;29;20343;-53
2022/11/07 04:08:18;;;;;;;3.53;1.30;;;11.70;93.00;;;14.72;53.56;97536.97;4908842;29;20243;-50
2022/11/07 04:10:46;;;;;;;2.38;1.45;;;11.60;93.10;;;14.74;53.37;97530.41;4908655;29;20056;-49
2022/11/07 04:18:47;;;;;;;2.55;1.67;;;11.60;93.00;;;14.72;53.35;97547.69;4908917;29;20045;-54
2022/11/07 04:21:15;;;;;;;4.85;2.55;;;11.60;93.40;;;14.68;53.51;97549.94;4908514;29;20044;-54
2022/11/07 04:23:43;;;;;;;5.60;2.60;;;11.60;93.70;;;14.68;53.41;97557.97;4907523;29;20055;-49
2022/11/07 04:28:58;;;;;;;4.15;2.58;;;11.60;93.80;;;14.71;53.42;97557.59;4909027;29;20052;-52
2022/11/07 04:31:26;;;;;;;4.18;2.50;;;11.60;94.60;;;14.73;53.35;97558.25;4907391;29;20048;-52
2022/11/07 04:33:54;;;;;;;4.45;2.60;;;11.60;93.80;;;14.75;53.33;97558.03;4907958;29;20051;-53
2022/11/07 04:36:22;;;;;;;4.97;2.72;;;11.60;93.70;;;14.74;53.44;97554.53;4908457;29;20052;-50
2022/11/07 04:38:50;;;;;;;4.13;2.30;;;11.60;93.40;;;14.75;53.25;97563.38;4907622;29;20068;-50
2022/11/07 04:41:22;;;;;;;3.38;1.95;;;11.60;93.50;;;14.72;53.56;97567.28;4908023;29;20351;-52
2022/11/07 04:43:50;;;;;;;4.28;1.95;;;11.60;93.70;;;14.72;53.43;97558.41;4908163;29;20381;-51
2022/11/07 04:46:19;;;;;;;3.30;1.63;;;11.50;93.80;;;14.70;53.52;97560.47;4908198;29;20049;-52
2022/11/07 04:48:47;;;;;;;3.45;1.35;;;11.50;93.80;;;14.68;53.21;97563.31;4907336;29;20052;-52
2022/11/07 04:51:20;;;;;;;2.67;1.52;;;11.50;93.80;;;14.63;53.48;97567.59;4908032;29;20045;-50
2022/11/07 04:53:48;;;;;;;2.25;1.52;;;11.40;93.70;;;14.56;53.41;97573.69;4906904;29;20052;-53
2022/11/07 04:56:16;;;;;;;4.53;1.90;;;11.30;94.20;;;14.50;53.59;97578.94;4908110;29;20059;-49
2022/11/07 04:58:44;;;;;;;3.22;1.70;;;11.30;94.80;;;14.45;53.68;97571.47;4907942;29;20079;-49
2022/11/07 05:01:12;;;;;;;3.75;1.67;;;11.20;95.10;;;14.37;53.92;97564.38;4908020;29;20329;-50
2022/11/07 05:03:40;;;;;;;2.28;1.50;;;11.10;95.60;;;14.36;53.92;97565.41;4907622;29;20070;-52
2022/11/07 05:06:13;;;;;;;3.55;2.08;;;11.10;96.00;;;14.34;53.92;97578.13;4907831;29;20048;-51
2022/11/07 05:08:41;;;;;;;2.55;1.85;;;11.10;96.50;;;14.35;53.96;97574.44;4906675;29;20056;-49
2022/11/07 05:11:09;;;;;;;8.27;4.22;;;11.10;96.60;;;14.30;54.13;97570.66;4906942;29;20063;-51
2022/11/07 05:13:37;;;;;;;5.67;3.40;;;11.10;97.00;;;14.32;54.19;97576.66;4907336;29;20052;-53
2022/11/07 05:16:13;;;;;;;5.97;1.83;;;11.00;97.10;;;14.31;54.09;97581.19;4907574;29;20044;-52
2022/11/07 05:18:42;;;;;;;5.32;2.55;;;11.10;98.20;;;14.29;54.17;97575.19;4906611;29;20062;-49
2022/11/07 05:21:10;;;;;;;14.15;6.85;;;11.00;97.40;;;14.25;54.25;97581.94;4907756;29;20048;-53
2022/11/07 05:23:38;;;;;;;9.93;5.60;;;11.00;97.60;;;14.21;54.42;97582.47;4907176;29;20054;-53
2022/11/07 05:26:08;;;;;;;8.40;4.72;;;10.90;98.10;;;14.17;54.45;97585.53;4907643;29;20236;-49
2022/11/07 05:28:36;;;;;;;5.60;2.92;;;10.90;98.60;;;14.14;54.56;97583.22;4905471;29;20056;-53
2022/11/07 05:31:10;;;;;;;5.85;2.90;;;10.90;98.80;;;14.13;54.52;97583.41;4907538;29;20060;-48
2022/11/07 05:33:38;;;;;;;3.60;2.63;;;10.90;99.10;;;14.11;54.73;97590.78;4907079;29;20238;-51
2022/11/07 05:36:19;;;;;;;4.03;2.65;;;10.90;99.60;;;14.07;54.81;97587.66;4907537;29;20053;-51
2022/11/07 05:38:51;;;;;;;3.80;2.63;;;10.80;99.90;;;14.05;54.85;97580.84;4907343;29;20052;-52
2022/11/07 05:41:21;;;;;;;3.13;2.00;;;10.80;99.90;;;13.99;54.75;97580.53;4907524;29;20239;-50
2022/11/07 05:43:49;;;;;;;4.80;2.00;;;10.80;99.90;;;14.01;54.88;97583.03;4905791;29;20052;-53
2022/11/07 05:46:17;;;;;;;3.67;2.47;;;10.80;99.90;;;13.97;54.94;97585.25;4906299;29;20052;-52
2022/11/07 05:48:45;;;;;;;4.30;1.73;;;10.70;99.90;;;13.92;54.92;97585.00;4907246;29;20373;-52
2022/11/07 05:51:13;;;;;;;2.67;1.70;;;10.70;99.90;;;13.88;54.91;97590.88;4907948;29;20056;-51
2022/11/07 05:53:41;;;;;;;3.17;1.77;;;10.60;99.90;;;13.83;55.14;97594.13;4906632;29;20043;-51
2022/11/07 05:56:10;;;;;;;2.50;1.67;;;10.60;99.90;;;13.77;55.44;97587.66;4907141;29;20048;-52
2022/11/07 05:58:38;;;;;;;2.40;1.60;;;10.60;99.90;;;13.80;55.54;97586.44;4906048;29;20368;-53
2022/11/07 06:01:06;;;;;;;3.72;1.75;;;10.70;99.90;;;13.80;55.47;97591.78;4907026;29;20052;-53
2022/11/07 06:03:34;;;;;;;3.13;1.50;;;10.60;99.90;;;13.79;55.67;97593.66;4906641;29;20058;-52
2022/11/07 06:06:02;;;;;;;2.20;1.60;;;10.60;99.90;;;13.77;55.52;97595.66;4907047;29;20052;-53
2022/11/07 06:08:30;;;;;;;4.78;1.77;;;10.60;99.90;;;13.81;55.56;97596.16;4906772;29;20258;-53
2022/11/07 06:11:04;;;;;;;4.95;1.77;;;10.70;99.90;;;13.89;55.56;97598.72;4907088;29;20052;-50
2022/11/07 06:13:32;;;;;;;;;;;10.70;99.90;;;13.96;55.04;97588.13;4907308;29;20066;-51
2022/11/07 06:16:01;;;;;;;4.43;1.60;;;10.70;99.90;;;13.93;55.17;97597.34;4906116;29;20000;-50
2022/11/07 06:18:29;;;;;;;3.60;1.63;;;10.70;99.90;;;13.86;55.35;97599.13;4912501;29;20059;-52
2022/11/07 06:21:00;;;;;;;3.80;1.65;;;10.70;99.90;;;13.85;55.47;97597.44;4913167;29;20053;-54
2022/11/07 06:23:28;;;;;;;7.05;2.05;;;10.70;99.90;;;13.85;55.52;97597.44;4912443;29;20052;-51
2022/11/07 06:25:57;;;;;;;3.05;1.90;;;10.70;99.90;;;13.87;55.49;97605.28;4912881;29;20055;-50
2022/11/07 06:28:25;;;;;;;3.33;1.63;;;10.70;99.90;;;13.88;55.41;97598.91;4913146;29;20059;-51
2022/11/07 06:30:57;;;;;;;2.33;1.60;;;10.80;99.90;;;13.86;55.57;97596.44;4912921;29;20343;-49
2022/11/07 06:33:25;;;;;;;2.53;1.63;;;10.80;99.90;;;13.87;55.51;97599.94;4912088;29;20049;-53
2022/11/07 06:35:54;;;;;;;2.97;1.70;;;10.80;99.90;;;13.87;55.73;97603.44;4912906;29;20063;-50
2022/11/07 06:38:23;;;;;;;4.87;1.47;;;10.80;99.90;;;13.87;55.53;97611.47;4912002;29;20052;-54
2022/11/07 06:40:51;;;;;;;3.77;1.80;;;10.80;99.90;;;13.87;55.61;97613.31;4912924;29;20066;-53
2022/11/07 06:43:20;;;;;;;3.10;1.73;;;10.80;99.90;;;13.88;55.56;97602.44;4911760;29;20049;-55
2022/11/07 06:45:48;;;;;;;6.45;1.60;;;10.90;99.90;;;13.91;55.59;97603.91;4912377;29;20572;-54
2022/11/07 06:48:16;;;;;;;9.10;1.67;;;10.90;99.90;;;13.95;55.46;97614.03;4912153;29;20051;-54
2022/11/07 06:50:46;;;;;;;2.40;1.77;;;10.90;99.90;;;13.92;55.67;97611.75;4912666;29;20052;-53
2022/11/07 06:53:14;;;;;;;3.33;2.20;;;10.90;99.90;;;13.94;55.76;97608.91;4912978;29;20063;-55
2022/11/07 06:55:43;;;;;;;5.00;2.50;;;10.90;99.90;;;13.96;55.72;97613.03;4912116;29;20044;-55
2022/11/07 06:58:11;;;;;;;2.47;1.80;;;10.90;99.90;;;13.95;55.80;97614.03;4913448;29;20482;-54
2022/11/07 07:00:39;;;;;;;3.17;2.03;;;11.00;99.90;;;13.92;55.85;97621.59;4912935;29;20052;-53
2022/11/07 07:03:09;;;;;;;5.03;1.50;;;11.00;99.90;;;13.94;55.98;97624.97;4912792;29;20052;-54
2022/11/07 07:05:37;;;;;;;1.70;1.30;;;11.00;99.90;;;13.90;56.24;97623.63;4911259;29;20059;-54
2022/11/07 07:08:06;;;;;;;5.38;1.85;;;11.00;99.90;;;13.94;56.12;97631.13;4912460;29;20052;-55
2022/11/07 07:10:39;;;;;;;5.22;1.73;;;11.00;99.90;;;13.93;56.19;97637.50;4912913;29;20103;-52
2022/11/07 07:13:08;;;;;;;5.50;1.50;;;11.00;99.90;;;14.00;56.03;97629.56;4911555;29;20049;-52
2022/11/07 07:15:36;;;;;;;3.47;1.80;;;11.10;99.90;;;14.05;55.88;97634.38;4911294;29;20076;-52
2022/11/07 07:18:18;;;;;;;3.10;2.10;;;11.10;99.90;;;14.10;55.91;97640.00;4912613;29;20056;-52
2022/11/07 07:20:49;;;;;;;5.18;1.77;;;11.20;99.90;;;14.11;55.82;97647.00;4911222;29;20056;-55
2022/11/07 07:23:18;;;;;;;3.40;1.50;;;11.20;99.90;;;14.07;55.81;97638.50;4911309;29;20056;-55
2022/11/07 07:25:48;;;;;;;3.10;1.40;;;11.10;99.90;;;14.09;55.95;97647.19;4910739;29;20060;-55
2022/11/07 07:28:16;;;;;;;3.20;1.67;;;11.20;99.90;;;14.08;55.89;97650.91;4910977;29;20056;-52
2022/11/07 07:30:44;;;;;;;5.57;1.63;;;11.20;99.90;;;14.08;55.97;97655.44;4909394;29;20060;-55
2022/11/07 07:33:20;;;;;;;3.08;1.40;;;11.20;99.90;;;14.09;55.93;97655.22;4909648;29;20045;-53
2022/11/07 07:35:48;;;;;;;6.83;1.73;;;11.20;99.90;;;14.11;55.92;97644.34;4908734;29;20052;-54
2022/11/07 07:38:16;;;;;;;1.97;1.30;;;11.20;99.90;;;14.14;55.75;97646.66;4909242;29;20048;-55
2022/11/07 07:40:46;;;;;;;3.28;1.55;;;11.20;99.90;;;14.16;55.93;97645.44;4909356;29;20068;-54
2022/11/07 07:43:14;;;;;;;2.72;1.30;;;11.20;99.90;;;14.22;55.83;97651.09;4907323;29;20055;-52
2022/11/07 07:45:43;;;;;;;2.85;1.45;;;11.30;99.90;;;14.24;55.69;97643.69;4908409;29;20048;-52
2022/11/07 07:48:11;;;;;;;3.42;1.60;;;11.30;99.90;;;14.28;55.71;97640.47;4908711;29;20291;-54
2022/11/07 07:50:39;;;;;;;3.65;1.98;;;11.40;99.90;;;14.30;55.97;97642.97;4909121;29;20056;-51
2022/11/07 07:53:08;;;;;;;3.58;1.35;;;11.40;99.90;;;14.29;56.09;97641.31;4908217;29;20376;-53
2022/11/07 07:55:36;;;;;;;3.05;2.13;;;11.50;99.90;;;14.35;56.06;97640.56;4909172;29;20059;-52
2022/11/07 07:58:04;;;;;;;2.80;1.48;;;11.50;99.90;;;14.43;55.78;97643.16;4909274;29;20063;-57
2022/11/07 08:00:33;;;;;;;4.28;1.48;;;11.60;99.90;;;14.52;55.87;97638.50;4909046;29;20045;-50
2022/11/07 08:03:09;;;;;;;3.65;2.05;;;11.70;99.90;;;14.57;55.71;97641.50;4908992;29;20056;-52
2022/11/07 08:05:38;;;;;;;3.17;1.63;;;11.80;99.90;;;14.61;55.72;97645.47;4908686;29;20068;-49
2022/11/07 08:08:07;;;;;;;3.97;1.73;;;11.80;99.90;;;14.66;55.66;97644.91;4909271;29;20342;-54
2022/11/07 08:10:36;;;;;;;2.05;1.50;;;11.80;99.90;;;14.67;55.50;97649.25;4908990;29;20054;-53
2022/11/07 08:13:09;;;;;;;8.05;1.98;;;11.80;99.90;;;14.71;55.48;97651.38;4908222;29;20056;-54
2022/11/07 08:15:37;;;;;;;2.85;1.30;;;11.90;99.90;;;14.76;55.31;97656.16;4908516;29;20052;-54
2022/11/07 08:18:06;;;;;;;6.68;1.52;;;11.90;99.70;;;14.81;55.36;97656.44;4908623;29;20056;-50
2022/11/07 08:20:34;;;;;;;4.65;2.30;;;12.00;99.90;;;14.88;55.14;97662.69;4908840;29;20216;-51
2022/11/07 08:23:06;;;;;;;4.88;1.85;;;12.00;99.80;;;14.93;55.10;97659.47;4908474;29;20048;-54
2022/11/07 08:25:56;;;;;;;3.03;1.70;;;12.10;99.70;;;14.94;54.97;97651.22;4902651;29;20052;-51
2022/11/07 08:28:29;;;;;;;;;;;12.00;98.60;;;15.00;54.79;97654.16;4905380;29;20063;-54
2022/11/07 08:31:09;;;;;;;3.90;1.33;;;12.00;98.50;;;15.03;54.84;97654.63;4907418;29;19935;-53
2022/11/07 08:33:37;;;;;;;3.50;1.42;;;12.00;99.40;;;15.06;54.91;97653.41;4908073;29;20045;-51
2022/11/07 08:36:06;;;;;;;2.60;1.42;;;12.10;99.40;;;15.04;54.88;97648.22;4908136;29;20350;-54
2022/11/07 08:38:35;;;;;;;3.47;1.48;;;12.10;98.90;;;15.10;55.06;97652.84;4908249;29;20043;-50
2022/11/07 08:41:04;;;;;;;5.82;1.75;;;12.20;99.00;;;15.14;54.81;97659.50;4907845;29;20049;-50
2022/11/07 08:43:32;;;;;;;4.03;1.73;;;12.20;98.70;;;15.18;54.59;97656.41;4906265;29;20055;-51
2022/11/07 08:46:00;;;;;;;5.00;1.85;;;12.30;98.30;;;15.21;54.54;97659.56;4908005;29;20052;-49
2022/11/07 08:48:28;;;;;;;3.38;1.80;;;12.30;97.90;;;15.26;54.60;97659.00;4908524;29;20052;-51
2022/11/07 08:50:58;;;;;;;8.38;2.53;;;12.40;98.00;;;15.30;54.38;97653.06;4908103;29;20243;-49
2022/11/07 08:53:26;;;;;;;5.72;1.88;;;12.40;97.60;;;15.31;54.42;97651.19;4908957;29;20062;-53
2022/11/07 08:56:09;;;;;;;4.22;1.98;;;12.40;97.00;;;15.35;54.32;97661.38;4907691;29;20044;-50
2022/11/07 08:58:37;;;;;;;7.28;2.42;;;12.40;96.90;;;15.40;54.22;97654.59;4908390;29;20048;-51
2022/11/07 09:01:09;;;;;;;7.47;2.30;;;12.40;96.50;;;15.40;54.16;97657.28;4908523;29;20060;-51
2022/11/07 09:03:38;;;;;;;3.10;1.65;;;12.50;96.40;;;15.42;54.20;97653.38;4906233;29;20250;-51
2022/11/07 09:06:23;;;;;;;5.72;2.72;;;12.50;96.30;;;15.48;54.14;97657.97;4907185;29;20365;-53
2022/11/07 09:08:51;;;;;;;4.85;1.95;;;12.50;96.30;;;15.51;54.00;97659.47;4907769;29;20044;-54
2022/11/07 09:11:20;;;;;;;3.28;1.73;;;12.60;95.80;;;15.48;53.96;97667.88;4906700;29;20086;-48
2022/11/07 09:13:49;;;;;;;5.65;1.77;;;12.60;95.50;;;15.51;53.72;97670.19;4907154;29;20074;-50
2022/11/07 09:16:17;;;;;;;3.00;1.73;;;12.60;94.80;;;15.52;53.79;97674.50;4907788;29;20048;-52
2022/11/07 09:18:48;;;;;;;3.33;1.40;;;12.70;95.10;;;15.57;53.79;97672.09;4907658;29;20071;-52
2022/11/07 09:21:17;;;;;;;2.92;1.17;;;12.70;94.20;;;15.58;53.66;97668.38;4906462;29;20274;-52
2022/11/07 09:23:50;;;;;;;3.47;2.38;;;12.70;93.60;;;15.61;53.44;97669.88;4905553;29;20048;-51
2022/11/07 09:26:19;;;;;;;5.65;1.83;;;12.70;93.20;;;15.58;53.59;97672.91;4906434;29;20048;-51
2022/11/07 09:28:47;;;;;;;9.05;1.55;;;12.70;92.90;;;15.59;53.38;97679.97;4905873;29;20053;-53
2022/11/07 09:31:21;;;;;;;5.60;2.10;;;12.80;92.10;;;15.69;53.15;97672.41;4907711;29;20052;-53
2022/11/07 09:33:49;;;;;;;4.75;1.70;;;12.90;92.00;;;15.75;52.96;97683.22;4905755;29;20048;-47
2022/11/07 09:36:17;;;;;;;5.22;1.77;;;13.00;91.70;;;15.74;52.84;97681.56;4906149;29;20057;-48
2022/11/07 09:38:45;;;;;;;5.45;1.83;;;13.00;90.40;;;15.69;53.02;97680.47;4907324;29;20049;-50
2022/11/07 09:41:38;;;;;;;5.30;1.73;;;13.00;89.70;;;15.69;52.65;97686.66;4907034;29;20051;-48
2022/11/07 09:44:20;;;;;;;2.42;1.40;;;13.00;87.00;;;15.75;52.34;97683.22;4906449;29;20238;-52
2022/11/07 09:47:06;;;;;;;2.85;1.60;;;13.00;87.30;;;15.82;52.29;97685.97;4907222;29;20044;-51
2022/11/07 09:49:59;;;;;;;4.65;1.70;;;13.10;88.70;;;15.87;52.53;97677.34;4907376;29;20054;-49
2022/11/07 09:52:34;;;;;;;19.48;9.93;;;13.10;88.30;;;15.87;52.44;97671.97;4905727;29;20049;-53
2022/11/07 09:55:25;;;;;;;10.73;6.20;;;13.10;88.10;;;15.83;52.26;97671.50;4906660;29;20048;-53
2022/11/07 09:57:59;;;;;;;6.07;2.10;;;13.20;86.30;;;15.98;52.00;97667.94;4906255;29;20057;-54
2022/11/07 10:00:30;;;;;;;4.95;1.67;;;13.30;87.70;;;16.05;52.00;97675.00;4906310;29;20356;-54
2022/11/07 10:03:03;;;;;;;5.50;1.70;;;13.30;87.30;;;16.09;51.88;97676.28;4906856;29;20060;-52
2022/11/07 10:06:01;;;;;;;4.32;2.03;;;13.40;86.70;;;16.17;51.46;97671.75;4905698;29;20250;-51
2022/11/07 10:09:03;;;;;;;3.53;1.40;;;13.40;84.80;;;16.16;51.25;97676.31;4906016;29;20338;-54
2022/11/07 10:11:49;;;;;;;7.13;1.63;;;13.50;83.10;;;16.28;51.38;97682.78;4906101;29;20343;-53
2022/11/07 10:14:54;;;;;;;5.38;1.50;;;13.60;83.50;;;16.36;51.24;97676.44;4906584;29;20048;-51
2022/11/07 10:17:42;;;;;;;4.38;1.55;;;13.60;83.30;;;16.42;50.96;97681.03;4859337;29;20063;-52
2022/11/07 10:20:46;;;;;;;3.40;1.30;;;13.70;83.60;;;16.37;50.43;97679.97;4906007;29;20049;-51
2022/11/07 10:23:34;;;;;;;2.97;1.25;;;13.70;80.40;;;16.42;49.94;97670.28;4906485;29;20070;-54
2022/11/07 10:26:14;;;;;;;7.00;1.73;;;13.70;81.00;;;16.52;50.33;97676.13;4906897;29;20251;-53
2022/11/07 10:29:16;;;;;;;4.25;1.30;;;13.80;81.40;;;16.54;49.99;97673.25;4905529;29;20056;-51
2022/11/07 10:32:28;;;;;;;2.88;1.23;;;13.90;80.20;;;16.64;50.13;97672.88;4906504;29;20064;-51
2022/11/07 10:35:11;;;;;;;3.17;1.23;;;14.00;78.70;;;16.72;49.64;97681.59;4833911;29;20054;-52
2022/11/07 10:37:39;;;;;;;4.70;1.80;;;14.00;78.40;;;16.68;49.35;97674.16;4905353;29;20056;-54
2022/11/07 10:40:20;;;;;;;3.58;1.88;;;14.00;79.40;;;16.72;49.56;97668.16;4905380;29;20055;-50
2022/11/07 10:42:49;;;;;;;4.63;1.25;;;14.00;77.70;;;16.74;49.40;97665.28;4905156;29;20045;-53
2022/11/07 10:45:18;;;;;;;5.32;1.50;;;14.10;79.10;;;16.74;49.50;97665.28;4904840;29;20063;-54
2022/11/07 10:48:04;;;;;;;2.25;1.10;;;14.10;79.10;;;16.81;49.58;97654.53;4905456;29;20068;-54
2022/11/07 10:50:32;;;;;;;3.65;1.00;;;14.20;77.90;;;16.82;49.47;97649.00;4905470;29;20242;-55